| time (UTC) | temp C | wind direction | speed KPH | gust KPH | rain 1hr cm | rain 24hr cm | rain mn cm | humidity % | barometer mb |
| 20260903011350 | 28 | 297 | 0.0 | 0.0 | 0.00 | 0.00 | 0.00 | 85 | 1020.0 |
| 20260903010846 | 28 | 297 | 0.0 | 0.0 | 0.00 | 0.00 | 0.00 | 84 | 1020.1 |
| 20260903010341 | 28 | 297 | 0.0 | 0.0 | 0.00 | 0.00 | 0.00 | 84 | 1019.8 |
| 20260903005839 | 28 | 297 | 0.0 | 0.0 | 0.00 | 0.00 | 0.00 | 84 | 1020.0 |
| 20260903005334 | 28 | 297 | 0.0 | 0.0 | 0.00 | 0.00 | 0.00 | 83 | 1020.0 |
| 20260903004831 | 28 | 296 | 0.0 | 0.0 | 0.00 | 0.00 | 0.00 | 83 | 1020.0 |
| 20260903004326 | 28 | 296 | 0.0 | 0.0 | 0.00 | 0.00 | 0.00 | 83 | 1020.0 |
| 20260903003821 | 28 | 297 | 0.0 | 0.0 | 0.00 | 0.00 | 0.00 | 84 | 1020.0 |
| 20260903003316 | 28 | 296 | 0.0 | 0.0 | 0.00 | 0.00 | 0.00 | 83 | 1020.0 |
| 20260903002816 | 28 | 296 | 0.0 | 0.0 | 0.00 | 0.00 | 0.00 | 83 | 1019.9 |
| 20260903002315 | 28 | 296 | 0.0 | 0.0 | 0.00 | 0.00 | 0.00 | 82 | 1019.7 |
| 20260903001810 | 28 | 296 | 0.0 | 0.0 | 0.00 | 0.00 | 0.00 | 82 | 1019.9 |
| 20260903001305 | 29 | 296 | 0.0 | 0.0 | 0.00 | 0.00 | 0.00 | 81 | 1019.7 |
| 20260903000800 | 30 | 295 | 0.0 | 0.0 | 0.00 | 0.00 | 0.00 | 80 | 1019.7 |
| 20260903000255 | 30 | 294 | 0.0 | 0.0 | 0.00 | 0.00 | 0.00 | 76 | 1019.9 |
| 20260902235753 | 30 | 294 | 1.6 | 1.6 | 0.00 | 0.00 | 0.00 | 74 | 1019.8 |
| 20260902235248 | 30 | 294 | 1.6 | 1.6 | 0.00 | 0.00 | 0.00 | 77 | 1019.6 |
| 20260902234748 | 30 | 294 | 0.0 | 0.0 | 0.00 | 0.00 | 0.00 | 78 | 1019.4 |
| 20260902234242 | 31 | 293 | 1.6 | 3.2 | 0.00 | 0.00 | 0.00 | 74 | 1019.8 |
| 20260902233742 | 31 | 294 | 1.6 | 1.6 | 0.00 | 0.00 | 0.00 | 74 | 1019.9 |
| 20260902233236 | 31 | 293 | 1.6 | 1.6 | 0.00 | 0.00 | 0.00 | 74 | 1019.8 |
| 20260902232734 | 31 | 284 | 3.2 | 3.2 | 0.00 | 0.00 | 0.00 | 70 | 1019.7 |
| 20260902232229 | 31 | 298 | 1.6 | 1.6 | 0.00 | 0.00 | 0.00 | 71 | 1019.6 |
| 20260902231728 | 32 | 298 | 1.6 | 1.6 | 0.00 | 0.00 | 0.00 | 70 | 1019.8 |
| 20260902231224 | 32 | 292 | 1.6 | 1.6 | 0.00 | 0.00 | 0.00 | 70 | 1019.9 |
| 20260902230719 | 32 | 292 | 1.6 | 1.6 | 0.00 | 0.00 | 0.00 | 70 | 1019.8 |
| 20260902230217 | 32 | 290 | 3.2 | 3.2 | 0.00 | 0.00 | 0.00 | 69 | 1020.0 |
| 20260902225713 | 32 | 272 | 1.6 | 1.6 | 0.00 | 0.00 | 0.00 | 68 | 1019.6 |
| 20260902225213 | 32 | 294 | 1.6 | 3.2 | 0.00 | 0.00 | 0.00 | 68 | 1020.0 |
| 20260902224711 | 32 | 288 | 1.6 | 1.6 | 0.00 | 0.00 | 0.00 | 67 | 1019.7 |
| 20260902224207 | 32 | 300 | 3.2 | 3.2 | 0.00 | 0.00 | 0.00 | 67 | 1020.0 |
| 20260902223703 | 32 | 289 | 3.2 | 3.2 | 0.00 | 0.00 | 0.00 | 67 | 1019.8 |
| 20260902223202 | 32 | 293 | 0.0 | 0.0 | 0.00 | 0.00 | 0.00 | 66 | 1019.9 |
| 20260902222701 | 32 | 282 | 1.6 | 1.6 | 0.00 | 0.00 | 0.00 | 66 | 1019.9 |
| 20260902222201 | 33 | 281 | 1.6 | 1.6 | 0.00 | 0.00 | 0.00 | 67 | 1019.9 |
| 20260902221654 | 33 | 274 | 1.6 | 3.2 | 0.00 | 0.00 | 0.00 | 66 | 1019.9 |
| 20260902221149 | 33 | 273 | 4.8 | 4.8 | 0.00 | 0.00 | 0.00 | 64 | 1020.1 |
| 20260902220644 | 33 | 286 | 4.8 | 4.8 | 0.00 | 0.00 | 0.00 | 65 | 1020.0 |
| 20260902220139 | 33 | 287 | 1.6 | 1.6 | 0.00 | 0.00 | 0.00 | 66 | 1019.8 |
| 20260902215635 | 33 | 297 | 3.2 | 3.2 | 0.00 | 0.00 | 0.00 | 66 | 1020.1 |
| 20260902215131 | 33 | 276 | 3.2 | 3.2 | 0.00 | 0.00 | 0.00 | 65 | 1019.7 |
| 20260902214625 | 33 | 290 | 3.2 | 3.2 | 0.00 | 0.00 | 0.00 | 66 | 1020.0 |
| 20260902214124 | 33 | 281 | 1.6 | 1.6 | 0.00 | 0.00 | 0.00 | 65 | 1020.0 |
| 20260902213620 | 33 | 268 | 6.4 | 9.7 | 0.00 | 0.00 | 0.00 | 64 | 1020.2 |
| 20260902213119 | 33 | 288 | 6.4 | 9.7 | 0.00 | 0.00 | 0.00 | 64 | 1020.2 |
| 20260902212615 | 33 | 276 | 4.8 | 4.8 | 0.00 | 0.00 | 0.00 | 64 | 1020.1 |
| 20260902212110 | 33 | 289 | 1.6 | 1.6 | 0.00 | 0.00 | 0.00 | 64 | 1020.2 |
| 20260902211607 | 33 | 273 | 3.2 | 3.2 | 0.00 | 0.00 | 0.00 | 65 | 1020.2 |
| 20260902211102 | 33 | 295 | 4.8 | 4.8 | 0.00 | 0.00 | 0.00 | 65 | 1020.1 |
| 20260902210556 | 33 | 289 | 1.6 | 1.6 | 0.00 | 0.00 | 0.00 | 64 | 1019.9 |
| 20260902210055 | 33 | 265 | 3.2 | 3.2 | 0.00 | 0.00 | 0.00 | 64 | 1020.2 |
| 20260902205555 | 33 | 279 | 3.2 | 3.2 | 0.00 | 0.00 | 0.00 | 64 | 1020.2 |
| 20260902205051 | 33 | 266 | 1.6 | 3.2 | 0.00 | 0.00 | 0.00 | 64 | 1020.5 |
| 20260902204545 | 33 | 281 | 1.6 | 3.2 | 0.00 | 0.00 | 0.00 | 66 | 1020.2 |
| 20260902204039 | 33 | 267 | 4.8 | 8.0 | 0.00 | 0.00 | 0.00 | 64 | 1020.5 |
| 20260902203535 | 33 | 285 | 6.4 | 8.0 | 0.00 | 0.00 | 0.00 | 63 | 1020.3 |
| 20260902203034 | 33 | 305 | 3.2 | 3.2 | 0.00 | 0.00 | 0.00 | 66 | 1020.6 |
| 20260902202530 | 33 | 262 | 3.2 | 4.8 | 0.00 | 0.00 | 0.00 | 64 | 1020.5 |
| 20260902202026 | 33 | 284 | 4.8 | 4.8 | 0.00 | 0.00 | 0.00 | 64 | 1020.5 |
| 20260902201522 | 33 | 291 | 1.6 | 3.2 | 0.00 | 0.00 | 0.00 | 64 | 1020.5 |
| 20260902201021 | 33 | 286 | 3.2 | 4.8 | 0.00 | 0.00 | 0.00 | 65 | 1020.5 |
| 20260902200516 | 33 | 286 | 1.6 | 1.6 | 0.00 | 0.00 | 0.00 | 63 | 1020.5 |
| 20260902200013 | 33 | 282 | 3.2 | 3.2 | 0.00 | 0.00 | 0.00 | 64 | 1020.6 |
| 20260902195508 | 33 | 265 | 3.2 | 3.2 | 0.00 | 0.00 | 0.00 | 65 | 1020.7 |
| 20260902195007 | 33 | 272 | 1.6 | 1.6 | 0.00 | 0.00 | 0.00 | 65 | 1020.6 |
| 20260902194501 | 33 | 252 | 1.6 | 3.2 | 0.00 | 0.00 | 0.00 | 63 | 1020.9 |
| 20260902193956 | 33 | 288 | 6.4 | 8.0 | 0.00 | 0.00 | 0.00 | 64 | 1020.8 |
| 20260902193452 | 33 | 212 | 4.8 | 8.0 | 0.00 | 0.00 | 0.00 | 63 | 1020.8 |
| 20260902192950 | 33 | 277 | 6.4 | 8.0 | 0.00 | 0.00 | 0.00 | 63 | 1020.7 |
| 20260902192450 | 33 | 230 | 3.2 | 3.2 | 0.00 | 0.00 | 0.00 | 63 | 1020.9 |
| 20260902191949 | 33 | 291 | 4.8 | 4.8 | 0.00 | 0.00 | 0.00 | 63 | 1021.1 |
| 20260902191444 | 33 | 289 | 1.6 | 3.2 | 0.00 | 0.00 | 0.00 | 63 | 1021.0 |
| 20260902190939 | 33 | 292 | 4.8 | 4.8 | 0.00 | 0.00 | 0.00 | 62 | 1021.2 |
| 20260902190435 | 33 | 273 | 3.2 | 4.8 | 0.00 | 0.00 | 0.00 | 63 | 1021.4 |
| 20260902185930 | 33 | 290 | 6.4 | 9.7 | 0.00 | 0.00 | 0.00 | 61 | 1021.3 |
| 20260902185426 | 33 | 275 | 4.8 | 4.8 | 0.00 | 0.00 | 0.00 | 62 | 1021.5 |
| 20260902184921 | 33 | 307 | 0.0 | 0.0 | 0.00 | 0.00 | 0.00 | 64 | 1021.3 |
| 20260902184416 | 33 | 300 | 3.2 | 3.2 | 0.00 | 0.00 | 0.00 | 63 | 1021.4 |
| 20260902183912 | 33 | 279 | 1.6 | 1.6 | 0.00 | 0.00 | 0.00 | 63 | 1021.4 |
| 20260902183408 | 33 | 288 | 3.2 | 3.2 | 0.00 | 0.00 | 0.00 | 63 | 1021.6 |
| 20260902182904 | 33 | 290 | 3.2 | 4.8 | 0.00 | 0.00 | 0.00 | 62 | 1021.6 |
| 20260902182400 | 33 | 282 | 0.0 | 1.6 | 0.00 | 0.00 | 0.00 | 64 | 1021.4 |
| 20260902181856 | 33 | 275 | 4.8 | 4.8 | 0.00 | 0.00 | 0.00 | 64 | 1021.5 |
| 20260902181352 | 33 | 290 | 4.8 | 4.8 | 0.00 | 0.00 | 0.00 | 63 | 1021.3 |
| 20260902180851 | 33 | 270 | 3.2 | 3.2 | 0.00 | 0.00 | 0.00 | 66 | 1021.5 |
| 20260902180346 | 33 | 267 | 4.8 | 4.8 | 0.00 | 0.00 | 0.00 | 65 | 1021.6 |
| 20260902175842 | 33 | 218 | 3.2 | 3.2 | 0.00 | 0.00 | 0.00 | 64 | 1021.7 |
| 20260902175337 | 32 | 280 | 3.2 | 3.2 | 0.00 | 0.00 | 0.00 | 66 | 1021.5 |
| 20260902174832 | 32 | 273 | 3.2 | 3.2 | 0.00 | 0.00 | 0.00 | 68 | 1021.8 |
| 20260902174329 | 32 | 291 | 1.6 | 1.6 | 0.00 | 0.00 | 0.00 | 66 | 1021.8 |
| 20260902173819 | 32 | 266 | 4.8 | 8.0 | 0.00 | 0.00 | 0.00 | 66 | 1022.0 |
| 20260902173319 | 33 | 267 | 4.8 | 4.8 | 0.00 | 0.00 | 0.00 | 64 | 1022.0 |
| 20260902172813 | 32 | 263 | 1.6 | 1.6 | 0.00 | 0.00 | 0.00 | 66 | 1022.1 |
| 20260902172308 | 32 | 274 | 1.6 | 3.2 | 0.00 | 0.00 | 0.00 | 65 | 1022.1 |
| 20260902171803 | 32 | 284 | 1.6 | 1.6 | 0.00 | 0.00 | 0.00 | 68 | 1022.1 |
| 20260902171257 | 32 | 266 | 1.6 | 3.2 | 0.00 | 0.00 | 0.00 | 67 | 1022.4 |
| 20260902170754 | 32 | 272 | 3.2 | 3.2 | 0.00 | 0.00 | 0.00 | 68 | 1022.1 |
| 20260902170249 | 32 | 281 | 6.4 | 9.7 | 0.00 | 0.00 | 0.00 | 67 | 1022.2 |
| 20260902165744 | 32 | 269 | 4.8 | 4.8 | 0.00 | 0.00 | 0.00 | 67 | 1022.1 |
| 20260902165244 | 32 | 274 | 1.6 | 1.6 | 0.00 | 0.00 | 0.00 | 69 | 1022.2 |
| 20260902164738 | 32 | 257 | 3.2 | 3.2 | 0.00 | 0.00 | 0.00 | 68 | 1022.2 |
| 20260902164233 | 32 | 214 | 3.2 | 4.8 | 0.00 | 0.00 | 0.00 | 69 | 1022.3 |
| 20260902163728 | 32 | 291 | 1.6 | 1.6 | 0.00 | 0.00 | 0.00 | 70 | 1022.3 |
| 20260902163227 | 32 | 287 | 3.2 | 3.2 | 0.00 | 0.00 | 0.00 | 71 | 1022.2 |
| 20260902162726 | 32 | 275 | 3.2 | 3.2 | 0.00 | 0.00 | 0.00 | 71 | 1022.0 |
| 20260902162221 | 32 | 283 | 0.0 | 1.6 | 0.00 | 0.00 | 0.00 | 71 | 1022.3 |
| 20260902161716 | 32 | 264 | 1.6 | 1.6 | 0.00 | 0.00 | 0.00 | 70 | 1022.1 |
| 20260902161211 | 32 | 271 | 1.6 | 1.6 | 0.00 | 0.00 | 0.00 | 73 | 1022.3 |
| 20260902160709 | 31 | 272 | 0.0 | 1.6 | 0.00 | 0.00 | 0.00 | 74 | 1022.4 |
| 20260902160202 | 31 | 272 | 0.0 | 0.0 | 0.00 | 0.00 | 0.00 | 73 | 1022.4 |
| 20260902155701 | 31 | 277 | 4.8 | 4.8 | 0.00 | 0.00 | 0.00 | 72 | 1022.2 |
| 20260902155159 | 31 | 270 | 1.6 | 3.2 | 0.00 | 0.00 | 0.00 | 72 | 1022.4 |
| 20260902154654 | 31 | 271 | 1.6 | 3.2 | 0.00 | 0.00 | 0.00 | 72 | 1022.3 |
| 20260902154148 | 31 | 270 | 0.0 | 0.0 | 0.00 | 0.00 | 0.00 | 73 | 1022.3 |
| 20260902153643 | 31 | 264 | 1.6 | 1.6 | 0.00 | 0.00 | 0.00 | 73 | 1022.1 |
| 20260902153138 | 31 | 270 | 3.2 | 3.2 | 0.00 | 0.00 | 0.00 | 72 | 1022.3 |
| 20260902152634 | 31 | 250 | 4.8 | 8.0 | 0.00 | 0.00 | 0.00 | 73 | 1022.6 |
| 20260902152129 | 31 | 270 | 1.6 | 3.2 | 0.00 | 0.00 | 0.00 | 75 | 1022.4 |
| 20260902151625 | 31 | 266 | 0.0 | 0.0 | 0.00 | 0.00 | 0.00 | 75 | 1022.6 |
| 20260902151119 | 31 | 276 | 1.6 | 3.2 | 0.00 | 0.00 | 0.00 | 74 | 1022.5 |
| 20260902150614 | 30 | 284 | 0.0 | 0.0 | 0.00 | 0.00 | 0.00 | 76 | 1022.7 |
| 20260902150109 | 30 | 296 | 3.2 | 4.8 | 0.00 | 0.00 | 0.00 | 75 | 1022.6 |
| 20260902145604 | 30 | 296 | 1.6 | 3.2 | 0.00 | 0.00 | 0.00 | 76 | 1022.9 |
| 20260902145103 | 30 | 267 | 3.2 | 3.2 | 0.00 | 0.00 | 0.00 | 77 | 1022.6 |
| 20260902144600 | 30 | 324 | 1.6 | 1.6 | 0.00 | 0.00 | 0.00 | 78 | 1022.6 |
| 20260902144055 | 30 | 292 | 1.6 | 1.6 | 0.00 | 0.00 | 0.00 | 77 | 1022.5 |
| 20260902143550 | 30 | 310 | 3.2 | 3.2 | 0.00 | 0.00 | 0.00 | 79 | 1022.7 |
| 20260902143046 | 30 | 313 | 1.6 | 1.6 | 0.00 | 0.00 | 0.00 | 81 | 1022.6 |
| 20260902142543 | 29 | 309 | 0.0 | 0.0 | 0.00 | 0.00 | 0.00 | 80 | 1022.7 |
| 20260902142036 | 29 | 311 | 0.0 | 0.0 | 0.00 | 0.00 | 0.00 | 80 | 1022.7 |
| 20260902141536 | 29 | 306 | 1.6 | 1.6 | 0.00 | 0.00 | 0.00 | 80 | 1022.7 |
| 20260902141031 | 28 | 306 | 0.0 | 0.0 | 0.00 | 0.00 | 0.00 | 80 | 1022.4 |
| 20260902140526 | 28 | 307 | 0.0 | 0.0 | 0.00 | 0.00 | 0.00 | 81 | 1022.4 |
| 20260902140022 | 28 | 307 | 1.6 | 1.6 | 0.00 | 0.00 | 0.00 | 83 | 1022.5 |
| 20260902135520 | 28 | 307 | 0.0 | 0.0 | 0.00 | 0.00 | 0.00 | 83 | 1022.4 |
| 20260902135015 | 27 | 307 | 0.0 | 0.0 | 0.00 | 0.00 | 0.00 | 84 | 1022.3 |
| 20260902134511 | 27 | 307 | 0.0 | 0.0 | 0.00 | 0.00 | 0.00 | 85 | 1022.5 |
| 20260902134006 | 27 | 306 | 0.0 | 0.0 | 0.00 | 0.00 | 0.00 | 85 | 1022.6 |
| 20260902133501 | 27 | 306 | 0.0 | 0.0 | 0.00 | 0.00 | 0.00 | 85 | 1022.3 |
| 20260902132955 | 27 | 306 | 0.0 | 0.0 | 0.00 | 0.00 | 0.00 | 86 | 1022.6 |
| 20260902132451 | 26 | 305 | 0.0 | 0.0 | 0.00 | 0.00 | 0.00 | 87 | 1022.6 |
| 20260902131945 | 26 | 297 | 1.6 | 3.2 | 0.00 | 0.00 | 0.00 | 86 | 1022.7 |
| 20260902131442 | 26 | 310 | 0.0 | 0.0 | 0.00 | 0.00 | 0.00 | 88 | 1022.7 |
| 20260902130941 | 26 | 303 | 1.6 | 1.6 | 0.00 | 0.00 | 0.00 | 87 | 1022.6 |
| 20260902130437 | 26 | 307 | 1.6 | 3.2 | 0.00 | 0.00 | 0.00 | 87 | 1022.7 |
| 20260902125932 | 26 | 307 | 1.6 | 3.2 | 0.00 | 0.00 | 0.00 | 87 | 1022.5 |
| 20260902125428 | 26 | 304 | 1.6 | 1.6 | 0.00 | 0.00 | 0.00 | 88 | 1022.6 |
| 20260902124924 | 26 | 312 | 1.6 | 1.6 | 0.00 | 0.00 | 0.00 | 88 | 1022.7 |
| 20260902124420 | 25 | 307 | 3.2 | 3.2 | 0.00 | 0.00 | 0.00 | 88 | 1022.3 |
| 20260902123914 | 25 | 307 | 1.6 | 1.6 | 0.00 | 0.00 | 0.00 | 89 | 1022.5 |
| 20260902123411 | 25 | 310 | 0.0 | 0.0 | 0.00 | 0.00 | 0.00 | 90 | 1022.5 |
| 20260902122909 | 25 | 308 | 0.0 | 0.0 | 0.00 | 0.00 | 0.00 | 90 | 1022.4 |
| 20260902122405 | 25 | 308 | 0.0 | 0.0 | 0.00 | 0.00 | 0.00 | 90 | 1022.4 |
| 20260902121900 | 25 | 321 | 0.0 | 0.0 | 0.00 | 0.00 | 0.00 | 91 | 1022.3 |
| 20260902121355 | 25 | 321 | 0.0 | 0.0 | 0.00 | 0.00 | 0.00 | 91 | 1022.3 |
| 20260902120850 | 24 | 317 | 0.0 | 0.0 | 0.00 | 0.00 | 0.00 | 92 | 1022.4 |
| 20260902120346 | 24 | 322 | 0.0 | 1.6 | 0.00 | 0.00 | 0.00 | 94 | 1022.2 |
| 20260902115840 | 24 | 317 | 0.0 | 1.6 | 0.00 | 0.00 | 0.00 | 94 | 1022.1 |
| 20260902115337 | 23 | 325 | 0.0 | 0.0 | 0.00 | 0.00 | 0.00 | 94 | 1022.1 |
| 20260902114833 | 23 | 322 | 0.0 | 0.0 | 0.00 | 0.00 | 0.00 | 94 | 1022.3 |
| 20260902114329 | 23 | 326 | 0.0 | 0.0 | 0.00 | 0.00 | 0.00 | 94 | 1021.9 |
| 20260902113828 | 23 | 317 | 0.0 | 0.0 | 0.00 | 0.00 | 0.00 | 95 | 1022.0 |
| 20260902113325 | 23 | 326 | 0.0 | 0.0 | 0.00 | 0.00 | 0.00 | 95 | 1021.8 |
| 20260902112823 | 23 | 326 | 0.0 | 0.0 | 0.00 | 0.00 | 0.00 | 95 | 1021.9 |
| 20260902112320 | 23 | 326 | 0.0 | 0.0 | 0.00 | 0.00 | 0.00 | 95 | 1021.7 |
| 20260902111815 | 23 | 326 | 0.0 | 0.0 | 0.00 | 0.00 | 0.00 | 94 | 1021.9 |
| 20260902111312 | 23 | 321 | 0.0 | 0.0 | 0.00 | 0.00 | 0.00 | 94 | 1021.8 |
| 20260902110807 | 23 | 326 | 0.0 | 0.0 | 0.00 | 0.00 | 0.00 | 95 | 1021.7 |
| 20260902110303 | 23 | 326 | 0.0 | 0.0 | 0.00 | 0.00 | 0.00 | 95 | 1021.8 |
| 20260902105803 | 23 | 326 | 0.0 | 0.0 | 0.00 | 0.00 | 0.00 | 95 | 1021.7 |
| 20260902105257 | 23 | 326 | 0.0 | 0.0 | 0.00 | 0.00 | 0.00 | 96 | 1021.6 |
| 20260902104753 | 23 | 326 | 0.0 | 0.0 | 0.00 | 0.00 | 0.00 | 96 | 1021.7 |
| 20260902104249 | 23 | 326 | 0.0 | 0.0 | 0.00 | 0.00 | 0.00 | 96 | 1021.6 |
| 20260902103748 | 23 | 326 | 0.0 | 0.0 | 0.00 | 0.00 | 0.00 | 96 | 1021.7 |
| 20260902103242 | 23 | 326 | 0.0 | 0.0 | 0.00 | 0.00 | 0.00 | 96 | 1021.7 |
| 20260902102733 | 23 | 326 | 0.0 | 0.0 | 0.00 | 0.00 | 0.00 | 96 | 1021.7 |
| 20260902102230 | 23 | 326 | 0.0 | 0.0 | 0.00 | 0.00 | 0.00 | 96 | 1021.8 |
| 20260902101720 | 23 | 326 | 0.0 | 0.0 | 0.00 | 0.00 | 0.00 | 96 | 1021.9 |
| 20260902101214 | 23 | 326 | 0.0 | 0.0 | 0.00 | 0.00 | 0.00 | 96 | 1021.7 |
| 20260902100713 | 23 | 320 | 0.0 | 0.0 | 0.00 | 0.00 | 0.00 | 96 | 1021.7 |
| 20260902100209 | 23 | 320 | 0.0 | 0.0 | 0.00 | 0.00 | 0.00 | 96 | 1021.7 |
| 20260902095708 | 23 | 320 | 0.0 | 0.0 | 0.00 | 0.00 | 0.00 | 96 | 1021.7 |
| 20260902095202 | 23 | 320 | 0.0 | 0.0 | 0.00 | 0.00 | 0.00 | 96 | 1021.7 |
| 20260902094657 | 23 | 320 | 0.0 | 0.0 | 0.00 | 0.00 | 0.00 | 96 | 1021.7 |
| 20260902094154 | 23 | 320 | 0.0 | 0.0 | 0.00 | 0.00 | 0.00 | 96 | 1021.6 |
| 20260902093652 | 23 | 320 | 0.0 | 0.0 | 0.00 | 0.00 | 0.00 | 96 | 1021.5 |
| 20260902093148 | 23 | 320 | 0.0 | 0.0 | 0.00 | 0.00 | 0.00 | 96 | 1021.6 |
| 20260902092643 | 23 | 320 | 0.0 | 0.0 | 0.00 | 0.00 | 0.00 | 96 | 1021.5 |
| 20260902092137 | 23 | 320 | 0.0 | 0.0 | 0.00 | 0.00 | 0.00 | 96 | 1021.4 |
| 20260902091632 | 23 | 320 | 0.0 | 0.0 | 0.00 | 0.00 | 0.00 | 96 | 1021.5 |
| 20260902091129 | 23 | 320 | 0.0 | 0.0 | 0.00 | 0.00 | 0.00 | 96 | 1021.6 |
| 20260902090624 | 23 | 320 | 0.0 | 0.0 | 0.00 | 0.00 | 0.00 | 96 | 1021.6 |
| 20260902090123 | 23 | 320 | 0.0 | 0.0 | 0.00 | 0.00 | 0.00 | 95 | 1021.5 |
| 20260902085618 | 23 | 320 | 0.0 | 0.0 | 0.00 | 0.00 | 0.00 | 95 | 1021.5 |
| 20260902085113 | 23 | 320 | 0.0 | 0.0 | 0.00 | 0.00 | 0.00 | 95 | 1021.3 |
| 20260902084609 | 23 | 320 | 0.0 | 0.0 | 0.00 | 0.00 | 0.00 | 95 | 1021.2 |
| 20260902084105 | 24 | 320 | 0.0 | 0.0 | 0.00 | 0.00 | 0.00 | 95 | 1021.2 |
| 20260902083600 | 24 | 320 | 0.0 | 0.0 | 0.00 | 0.00 | 0.00 | 95 | 1021.2 |
| 20260902083059 | 24 | 320 | 0.0 | 0.0 | 0.00 | 0.00 | 0.00 | 95 | 1021.2 |
| 20260902082555 | 24 | 320 | 0.0 | 0.0 | 0.00 | 0.00 | 0.00 | 95 | 1021.2 |
| 20260902082051 | 24 | 320 | 0.0 | 0.0 | 0.00 | 0.00 | 0.00 | 95 | 1021.2 |
| 20260902081548 | 24 | 320 | 0.0 | 0.0 | 0.00 | 0.00 | 0.00 | 95 | 1021.0 |
| 20260902081048 | 24 | 320 | 0.0 | 0.0 | 0.00 | 0.00 | 0.00 | 95 | 1021.0 |
| 20260902080543 | 24 | 320 | 0.0 | 0.0 | 0.00 | 0.00 | 0.00 | 95 | 1021.0 |
| 20260902080039 | 24 | 320 | 0.0 | 0.0 | 0.00 | 0.00 | 0.00 | 95 | 1021.1 |
| 20260902075539 | 24 | 320 | 0.0 | 0.0 | 0.00 | 0.00 | 0.00 | 95 | 1021.2 |
| 20260902075035 | 24 | 320 | 0.0 | 0.0 | 0.00 | 0.00 | 0.00 | 94 | 1021.0 |
| 20260902074530 | 24 | 320 | 0.0 | 0.0 | 0.00 | 0.00 | 0.00 | 94 | 1021.1 |
| 20260902074025 | 24 | 320 | 0.0 | 0.0 | 0.00 | 0.00 | 0.00 | 94 | 1021.0 |
| 20260902073521 | 24 | 320 | 0.0 | 0.0 | 0.00 | 0.00 | 0.00 | 94 | 1021.2 |
| 20260902073017 | 24 | 320 | 0.0 | 0.0 | 0.00 | 0.00 | 0.00 | 94 | 1021.1 |
| 20260902072512 | 24 | 320 | 0.0 | 0.0 | 0.00 | 0.00 | 0.00 | 94 | 1021.1 |
| 20260902072009 | 24 | 320 | 0.0 | 0.0 | 0.00 | 0.00 | 0.00 | 94 | 1021.1 |
| 20260902071508 | 24 | 320 | 0.0 | 0.0 | 0.00 | 0.00 | 0.00 | 94 | 1020.9 |
| 20260902071005 | 24 | 320 | 0.0 | 0.0 | 0.00 | 0.00 | 0.00 | 94 | 1021.0 |
| 20260902070500 | 25 | 320 | 0.0 | 0.0 | 0.00 | 0.00 | 0.00 | 94 | 1021.0 |
| 20260902065959 | 25 | 320 | 0.0 | 0.0 | 0.00 | 0.00 | 0.00 | 93 | 1021.0 |
| 20260902065454 | 25 | 320 | 0.0 | 0.0 | 0.00 | 0.00 | 0.00 | 93 | 1021.1 |
| 20260902064949 | 25 | 320 | 0.0 | 0.0 | 0.00 | 0.00 | 0.00 | 93 | 1021.1 |
| 20260902064445 | 25 | 320 | 0.0 | 0.0 | 0.00 | 0.00 | 0.00 | 93 | 1021.1 |
| 20260902063940 | 25 | 320 | 0.0 | 0.0 | 0.00 | 0.00 | 0.00 | 93 | 1021.1 |
| 20260902063440 | 25 | 320 | 0.0 | 0.0 | 0.00 | 0.00 | 0.00 | 93 | 1021.0 |
| 20260902062936 | 25 | 320 | 0.0 | 0.0 | 0.00 | 0.00 | 0.00 | 93 | 1021.2 |
| 20260902062434 | 25 | 320 | 0.0 | 0.0 | 0.00 | 0.00 | 0.00 | 93 | 1021.1 |
| 20260902061929 | 25 | 320 | 0.0 | 0.0 | 0.00 | 0.00 | 0.00 | 93 | 1021.3 |
| 20260902061424 | 25 | 320 | 0.0 | 0.0 | 0.00 | 0.00 | 0.00 | 92 | 1021.1 |
| 20260902060920 | 25 | 320 | 0.0 | 0.0 | 0.00 | 0.00 | 0.00 | 92 | 1021.1 |
| 20260902060416 | 25 | 320 | 0.0 | 0.0 | 0.00 | 0.00 | 0.00 | 92 | 1021.3 |
| 20260902055912 | 25 | 320 | 0.0 | 0.0 | 0.00 | 0.00 | 0.00 | 92 | 1021.0 |
| 20260902055408 | 25 | 320 | 0.0 | 0.0 | 0.00 | 0.00 | 0.00 | 91 | 1021.0 |
| 20260902054903 | 25 | 319 | 0.0 | 0.0 | 0.00 | 0.00 | 0.00 | 92 | 1021.3 |
| 20260902054358 | 25 | 319 | 0.0 | 0.0 | 0.00 | 0.00 | 0.00 | 92 | 1021.1 |
| 20260902053854 | 25 | 319 | 0.0 | 0.0 | 0.00 | 0.00 | 0.00 | 91 | 1020.9 |
| 20260902053349 | 25 | 319 | 0.0 | 0.0 | 0.00 | 0.00 | 0.00 | 91 | 1021.2 |
| 20260902052847 | 25 | 319 | 0.0 | 0.0 | 0.00 | 0.00 | 0.00 | 91 | 1021.2 |
| 20260902052343 | 25 | 319 | 0.0 | 0.0 | 0.00 | 0.00 | 0.00 | 90 | 1021.0 |
| 20260902051838 | 25 | 319 | 0.0 | 0.0 | 0.00 | 0.00 | 0.00 | 90 | 1021.1 |
| 20260902051337 | 25 | 319 | 0.0 | 0.0 | 0.00 | 0.00 | 0.00 | 90 | 1021.1 |
| 20260902050832 | 25 | 319 | 0.0 | 0.0 | 0.00 | 0.00 | 0.00 | 89 | 1021.0 |
| 20260902050331 | 25 | 319 | 0.0 | 0.0 | 0.00 | 0.00 | 0.00 | 89 | 1021.2 |
| 20260902045826 | 25 | 319 | 0.0 | 0.0 | 0.00 | 0.00 | 0.00 | 89 | 1020.9 |
| 20260902045322 | 25 | 319 | 0.0 | 0.0 | 0.00 | 0.00 | 0.00 | 89 | 1021.1 |
| 20260902044819 | 25 | 318 | 0.0 | 0.0 | 0.00 | 0.00 | 0.00 | 89 | 1021.1 |
| 20260902044314 | 25 | 318 | 0.0 | 0.0 | 0.00 | 0.00 | 0.00 | 89 | 1021.1 |
| 20260902043814 | 25 | 318 | 0.0 | 0.0 | 0.00 | 0.00 | 0.00 | 89 | 1021.2 |
| 20260902043309 | 25 | 318 | 0.0 | 0.0 | 0.00 | 0.00 | 0.00 | 89 | 1020.9 |
| 20260902042808 | 26 | 318 | 0.0 | 0.0 | 0.00 | 0.00 | 0.00 | 88 | 1021.1 |
| 20260902042308 | 26 | 318 | 0.0 | 0.0 | 0.00 | 0.00 | 0.00 | 89 | 1021.1 |
| 20260902041759 | 26 | 318 | 0.0 | 0.0 | 0.00 | 0.00 | 0.00 | 88 | 1021.3 |
| 20260902041258 | 26 | 318 | 0.0 | 0.0 | 0.00 | 0.00 | 0.00 | 88 | 1021.2 |
| 20260902040757 | 26 | 318 | 0.0 | 0.0 | 0.00 | 0.00 | 0.00 | 88 | 1021.3 |
| 20260902040253 | 26 | 318 | 0.0 | 0.0 | 0.00 | 0.00 | 0.00 | 88 | 1021.2 |
| 20260902035752 | 26 | 318 | 0.0 | 0.0 | 0.00 | 0.00 | 0.00 | 88 | 1021.3 |
| 20260902035248 | 26 | 318 | 0.0 | 0.0 | 0.00 | 0.00 | 0.00 | 88 | 1021.0 |
| 20260902034746 | 26 | 318 | 0.0 | 0.0 | 0.00 | 0.00 | 0.00 | 88 | 1021.4 |
| 20260902034242 | 26 | 318 | 0.0 | 0.0 | 0.00 | 0.00 | 0.00 | 88 | 1021.1 |
| 20260902033739 | 26 | 318 | 0.0 | 0.0 | 0.00 | 0.00 | 0.00 | 88 | 1021.3 |
| 20260902033235 | 26 | 318 | 0.0 | 0.0 | 0.00 | 0.00 | 0.00 | 88 | 1021.2 |
| 20260902032733 | 26 | 318 | 0.0 | 0.0 | 0.00 | 0.00 | 0.00 | 88 | 1021.3 |
| 20260902032229 | 26 | 318 | 0.0 | 0.0 | 0.00 | 0.00 | 0.00 | 88 | 1021.1 |
| 20260902031723 | 26 | 318 | 0.0 | 0.0 | 0.00 | 0.00 | 0.00 | 88 | 1021.4 |
| 20260902031218 | 26 | 318 | 0.0 | 0.0 | 0.00 | 0.00 | 0.00 | 87 | 1021.1 |
| 20260902030714 | 26 | 318 | 0.0 | 0.0 | 0.00 | 0.00 | 0.00 | 86 | 1021.1 |
| 20260902030214 | 26 | 318 | 0.0 | 0.0 | 0.00 | 0.00 | 0.00 | 86 | 1021.5 |
| 20260902025713 | 26 | 318 | 0.0 | 0.0 | 0.00 | 0.00 | 0.00 | 86 | 1021.2 |
| 20260902025208 | 26 | 318 | 0.0 | 0.0 | 0.00 | 0.00 | 0.00 | 87 | 1021.0 |
| 20260902024703 | 26 | 318 | 0.0 | 0.0 | 0.00 | 0.00 | 0.00 | 87 | 1021.5 |
| 20260902024158 | 26 | 318 | 0.0 | 0.0 | 0.00 | 0.00 | 0.00 | 87 | 1021.0 |
| 20260902023654 | 26 | 318 | 0.0 | 0.0 | 0.00 | 0.00 | 0.00 | 86 | 1021.1 |
| 20260902023149 | 26 | 318 | 0.0 | 0.0 | 0.00 | 0.00 | 0.00 | 86 | 1021.0 |
| 20260902022648 | 26 | 318 | 0.0 | 0.0 | 0.00 | 0.00 | 0.00 | 86 | 1021.0 |
| 20260902022144 | 26 | 318 | 0.0 | 0.0 | 0.00 | 0.00 | 0.00 | 86 | 1021.0 |
| 20260902021640 | 26 | 318 | 0.0 | 0.0 | 0.00 | 0.00 | 0.00 | 86 | 1020.9 |
| 20260902021134 | 26 | 318 | 0.0 | 0.0 | 0.00 | 0.00 | 0.00 | 86 | 1021.0 |
| 20260902020631 | 27 | 318 | 0.0 | 0.0 | 0.00 | 0.00 | 0.00 | 86 | 1021.1 |
| 20260902020126 | 26 | 318 | 0.0 | 0.0 | 0.00 | 0.00 | 0.00 | 87 | 1021.0 |
| 20260902015622 | 27 | 318 | 0.0 | 0.0 | 0.00 | 0.00 | 0.00 | 87 | 1021.1 |
| 20260902015118 | 27 | 318 | 0.0 | 0.0 | 0.00 | 0.00 | 0.00 | 87 | 1020.8 |
| 20260902014613 | 27 | 318 | 0.0 | 0.0 | 0.00 | 0.00 | 0.00 | 87 | 1020.8 |
| 20260902014109 | 27 | 318 | 0.0 | 0.0 | 0.00 | 0.00 | 0.00 | 87 | 1020.8 |
| 20260902013608 | 27 | 318 | 0.0 | 0.0 | 0.00 | 0.00 | 0.00 | 86 | 1020.8 |
| 20260902013104 | 27 | 318 | 0.0 | 0.0 | 0.00 | 0.00 | 0.00 | 86 | 1020.6 |
| 20260902012559 | 27 | 318 | 0.0 | 0.0 | 0.00 | 0.00 | 0.00 | 86 | 1020.8 |
| 20260902012054 | 27 | 318 | 0.0 | 0.0 | 0.00 | 0.00 | 0.00 | 86 | 1020.8 |